Weather at Madeira Airport

Public forecast

Using degrees Celsius for public forecast. Weather courtesy of forecast.io.

Current aviation weather report (METAR) for Madeira Airport

Retrieved 2021/08/04 07:00 UTC (10 minutes ago):

LPMA 040700Z 01013KT 340V040 9999 FEW016 21/16 Q1022

Aviation forecast (TAF) for Madeira Airport

Retrieved 2021/08/04 06:18 UTC (52 minutes ago):

TAF LPMA 040500Z 0406/0506 01012KT 9999 SCT016 TEMPO 0406/0421 01018G30KT